Time;durP1;ratioP1;P1;durP2;ratioP2;P2;SDS_P1;SDS_P2;PMS_P1;PMS_P2;Temp;Humidity;BMP_temperature;BMP_pressure;BME280_temperature;BME280_humidity;BME280_pressure;Samples;Min_cycle;Max_cycle;Signal;HPM_P1;HPM_P2
2023/01/08 00:02:26;;;;;;;119.20;70.75;;;26.20;99.90;;;;;;5029605;28;20429;-65
2023/01/08 00:04:52;;;;;;;144.00;94.72;;;26.20;99.90;;;;;;5037373;28;20037;-64
2023/01/08 00:07:19;;;;;;;97.25;59.80;;;26.20;99.90;;;;;;5023703;28;20112;-67
2023/01/08 00:09:48;;;;;;;78.95;47.83;;;26.20;99.90;;;;;;5016272;28;20108;-66
2023/01/08 00:12:15;;;;;;;51.88;35.95;;;26.30;99.90;;;;;;5016370;28;20105;-66
2023/01/08 00:14:41;;;;;;;41.97;27.20;;;26.30;99.90;;;;;;5016048;28;20038;-66
2023/01/08 00:17:08;;;;;;;32.95;22.48;;;26.30;99.90;;;;;;5016189;28;20033;-66
2023/01/08 00:19:34;;;;;;;28.80;21.92;;;26.30;99.90;;;;;;5016122;28;20549;-66
2023/01/08 00:22:01;;;;;;;33.60;23.60;;;26.30;99.90;;;;;;5015852;28;20030;-66
2023/01/08 00:24:27;;;;;;;38.75;26.33;;;26.30;99.90;;;;;;5016069;28;20026;-66
2023/01/08 00:26:54;;;;;;;37.10;25.65;;;26.30;99.90;;;;;;5016050;28;20084;-66
2023/01/08 00:29:20;;;;;;;33.03;22.92;;;26.50;99.90;;;;;;5015791;28;20041;-66
2023/01/08 00:31:47;;;;;;;38.72;22.95;;;26.40;99.90;;;;;;5015895;28;20099;-66
2023/01/08 00:34:13;;;;;;;29.17;18.17;;;26.50;99.90;;;;;;5015813;28;20053;-66
2023/01/08 00:36:40;;;;;;;27.17;17.88;;;26.50;99.90;;;;;;5015709;28;20382;-66
2023/01/08 00:39:07;;;;;;;27.27;14.70;;;26.40;99.90;;;;;;5015709;28;20022;-66
2023/01/08 00:41:33;;;;;;;26.27;14.48;;;26.40;99.90;;;;;;5015793;28;20483;-66
2023/01/08 00:44:00;;;;;;;25.80;16.67;;;26.40;99.90;;;;;;5015614;28;20037;-67
2023/01/08 00:46:26;;;;;;;29.95;17.45;;;26.40;99.90;;;;;;5015818;28;20018;-67
2023/01/08 00:48:53;;;;;;;24.30;16.20;;;26.40;99.90;;;;;;5015504;28;20029;-67
2023/01/08 00:51:19;;;;;;;25.95;14.40;;;26.40;99.90;;;;;;5015433;28;20097;-66
2023/01/08 00:53:46;;;;;;;25.88;15.95;;;26.40;99.90;;;;;;5015288;28;20022;-66
2023/01/08 00:56:12;;;;;;;28.98;18.98;;;26.40;99.90;;;;;;5015673;28;20054;-66
2023/01/08 00:58:39;;;;;;;35.67;18.63;;;26.40;99.90;;;;;;5015326;28;20042;-67
2023/01/08 01:01:15;;;;;;;34.97;19.92;;;26.40;99.90;;;;;;5015233;28;20423;-66
2023/01/08 01:03:41;;;;;;;47.38;27.60;;;26.40;99.90;;;;;;5015478;28;20037;-68
2023/01/08 01:06:10;;;;;;;37.47;23.33;;;26.40;99.90;;;;;;5015039;28;20033;-69
2023/01/08 01:08:36;;;;;;;31.98;18.38;;;26.40;99.90;;;;;;5015126;28;20080;-71
2023/01/08 01:11:13;;;;;;;27.25;17.65;;;26.50;99.90;;;;;;5015279;28;20021;-66
2023/01/08 01:13:39;;;;;;;44.53;27.45;;;26.50;99.90;;;;;;5015233;28;20435;-66
2023/01/08 01:16:06;;;;;;;47.92;27.75;;;26.50;99.90;;;;;;5014906;28;20398;-67
2023/01/08 01:18:33;;;;;;;37.72;19.35;;;26.50;99.90;;;;;;5014228;28;20033;-66
2023/01/08 01:20:59;;;;;;;28.88;17.10;;;26.60;99.90;;;;;;5014753;28;20025;-66
2023/01/08 01:23:26;;;;;;;26.08;15.05;;;26.60;99.90;;;;;;5014973;28;20068;-66
2023/01/08 01:25:53;;;;;;;23.13;13.85;;;26.70;99.90;;;;;;5014939;28;20022;-66
2023/01/08 01:28:19;;;;;;;24.77;15.45;;;26.70;99.90;;;;;;5014660;28;20034;-67
2023/01/08 01:30:54;;;;;;;18.90;11.20;;;26.70;99.90;;;;;;5014857;28;20017;-66
2023/01/08 01:33:20;;;;;;;17.83;10.45;;;26.80;99.90;;;;;;5014606;28;20121;-64
2023/01/08 01:35:47;;;;;;;19.33;9.80;;;26.80;99.90;;;;;;5014654;28;20026;-66
2023/01/08 01:38:14;;;;;;;15.30;10.13;;;26.80;99.90;;;;;;5014700;28;20029;-66
2023/01/08 01:40:42;;;;;;;23.30;10.63;;;26.90;99.90;;;;;;5014706;28;20542;-65
2023/01/08 01:43:13;;;;;;;20.60;10.98;;;26.90;99.90;;;;;;5014527;28;20034;-66
2023/01/08 01:45:41;;;;;;;19.48;9.45;;;27.00;99.90;;;;;;5014444;28;20029;-66
2023/01/08 01:48:12;;;;;;;14.18;7.85;;;27.00;99.90;;;;;;5014541;28;20026;-68
2023/01/08 01:50:44;;;;;;;17.33;7.95;;;27.00;99.90;;;;;;5014406;28;20022;-69
2023/01/08 01:53:17;;;;;;;21.48;10.27;;;27.00;99.90;;;;;;5014420;28;20416;-67
2023/01/08 01:55:44;;;;;;;18.20;10.43;;;27.10;99.90;;;;;;5014123;28;20042;-67
2023/01/08 01:58:15;;;;;;;18.00;10.68;;;27.20;99.90;;;;;;5014159;28;20022;-67
2023/01/08 02:00:43;;;;;;;19.92;11.48;;;27.20;99.90;;;;;;5014278;28;20471;-64
2023/01/08 02:03:11;;;;;;;14.65;10.45;;;27.30;99.90;;;;;;5014224;28;20029;-66
2023/01/08 02:06:03;;;;;;;26.35;15.40;;;27.30;99.90;;;;;;5014509;28;20356;-66
2023/01/08 02:09:00;;;;;;;24.98;13.23;;;27.40;99.90;;;;;;5014185;28;20538;-66
2023/01/08 02:11:34;;;;;;;30.45;14.30;;;27.40;99.90;;;;;;5014052;28;20084;-66
2023/01/08 02:14:16;;;;;;;23.15;15.68;;;27.50;99.90;;;;;;5014049;28;20060;-67
2023/01/08 02:16:51;;;;;;;23.00;15.38;;;27.50;99.90;;;;;;5013830;28;20484;-67
2023/01/08 02:19:32;;;;;;;25.27;17.73;;;27.50;99.90;;;;;;5014088;28;20410;-66
2023/01/08 02:22:25;;;;;;;24.25;15.40;;;27.50;99.90;;;;;;5013947;28;20022;-66
2023/01/08 02:24:55;;;;;;;22.63;14.40;;;27.60;99.90;;;;;;5014078;28;20025;-67
2023/01/08 02:27:24;;;;;;;19.80;12.85;;;27.60;99.90;;;;;;5013970;28;20041;-66
2023/01/08 02:29:54;;;;;;;19.80;14.20;;;27.70;99.90;;;;;;5013858;28;20037;-67
2023/01/08 02:32:25;;;;;;;27.65;18.88;;;27.70;99.90;;;;;;5013514;28;20033;-66
2023/01/08 02:34:53;;;;;;;20.67;16.13;;;27.80;99.90;;;;;;5013532;28;20038;-67
2023/01/08 02:37:20;;;;;;;26.02;15.98;;;27.90;99.90;;;;;;5013530;28;20029;-66
2023/01/08 02:40:10;;;;;;;19.50;15.52;;;28.00;99.90;;;;;;5013466;28;20033;-66
2023/01/08 02:42:40;;;;;;;25.20;14.77;;;28.10;99.90;;;;;;5014522;28;20026;-66
2023/01/08 02:45:30;;;;;;;23.65;16.25;;;28.20;99.90;;;;;;5023686;28;20531;-68
2023/01/08 02:48:16;;;;;;;34.47;15.93;;;28.20;99.90;;;;;;5026727;28;20036;-66
2023/01/08 02:51:06;;;;;;;25.90;17.05;;;28.30;99.90;;;;;;4972328;28;20078;-64
2023/01/08 02:53:37;;;;;;;24.83;17.17;;;28.40;99.90;;;;;;4972525;28;20066;-66
2023/01/08 02:56:10;;;;;;;36.03;19.35;;;28.40;99.90;;;;;;4972360;28;20536;-64
2023/01/08 02:58:39;;;;;;;27.05;17.42;;;28.60;99.90;;;;;;4961347;28;20043;-67
2023/01/08 03:01:09;;;;;;;29.70;21.73;;;28.60;99.90;;;;;;4972639;28;20019;-65
2023/01/08 03:03:39;;;;;;;34.40;21.38;;;28.70;99.90;;;;;;4972540;28;20043;-65
2023/01/08 03:06:10;;;;;;;29.65;21.17;;;28.70;99.90;;;;;;4972239;28;20050;-64
2023/01/08 03:08:41;;;;;;;30.20;20.00;;;28.80;99.90;;;;;;4972478;28;20459;-67
2023/01/08 03:11:10;;;;;;;27.98;20.45;;;28.90;99.90;;;;;;4972416;28;20417;-66
2023/01/08 03:13:51;;;;;;;28.83;21.90;;;28.90;99.90;;;;;;4972868;28;20034;-66
2023/01/08 03:16:25;;;;;;;29.92;20.73;;;29.00;99.90;;;;;;4972555;28;20035;-65
2023/01/08 03:18:58;;;;;;;30.02;23.38;;;29.00;99.90;;;;;;4972317;28;20097;-65
2023/01/08 03:21:26;;;;;;;44.65;30.88;;;28.90;99.90;;;;;;4972472;28;20022;-64
2023/01/08 03:23:52;;;;;;;56.45;38.28;;;29.00;99.90;;;;;;4972339;28;20427;-63
2023/01/08 03:26:25;;;;;;;45.60;32.28;;;29.00;99.90;;;;;;4972431;28;20038;-64
2023/01/08 03:28:54;;;;;;;30.83;20.75;;;29.10;99.90;;;;;;4972129;28;20027;-65
2023/01/08 03:31:23;;;;;;;23.77;16.50;;;29.20;99.90;;;;;;4971688;28;20027;-65
2023/01/08 03:33:50;;;;;;;34.97;19.77;;;29.20;99.90;;;;;;4992968;28;20121;-64
2023/01/08 03:36:21;;;;;;;31.90;20.70;;;29.20;99.90;;;;;;5032960;28;20516;-65
2023/01/08 03:38:55;;;;;;;24.42;18.75;;;29.20;99.90;;;;;;5032760;28;20097;-64
2023/01/08 03:41:24;;;;;;;25.05;16.38;;;29.30;99.90;;;;;;5034167;28;20101;-64
2023/01/08 03:43:50;;;;;;;20.40;15.23;;;29.30;99.90;;;;;;5036554;28;20018;-62
2023/01/08 03:46:28;;;;;;;23.92;16.40;;;29.40;99.90;;;;;;5036642;28;20475;-64
2023/01/08 03:48:55;;;;;;;20.40;16.08;;;29.40;99.90;;;;;;5036498;28;20040;-64
2023/01/08 03:51:22;;;;;;;23.73;16.75;;;29.40;99.90;;;;;;5036351;28;20103;-64
2023/01/08 03:53:51;;;;;;;20.77;15.98;;;29.50;99.90;;;;;;5036615;28;20105;-63
2023/01/08 03:56:17;;;;;;;19.70;14.68;;;29.50;99.90;;;;;;5036517;28;20057;-64
2023/01/08 03:58:44;;;;;;;23.35;12.00;;;29.70;99.90;;;;;;5036152;28;20387;-63
2023/01/08 04:01:11;;;;;;;15.52;12.15;;;29.80;99.90;;;;;;5036383;28;20387;-64
2023/01/08 04:03:37;;;;;;;15.18;11.68;;;29.80;99.90;;;;;;5036092;28;20100;-64
2023/01/08 04:06:04;;;;;;;15.25;10.68;;;29.80;99.90;;;;;;5035957;28;20414;-64
2023/01/08 04:08:30;;;;;;;14.23;9.88;;;29.90;99.90;;;;;;5036234;28;20028;-64
2023/01/08 04:10:57;;;;;;;15.23;9.40;;;30.00;99.90;;;;;;5035950;28;20079;-63
2023/01/08 04:13:23;;;;;;;16.00;9.82;;;30.10;99.90;;;;;;5036089;28;20047;-64
2023/01/08 04:15:51;;;;;;;17.10;10.60;;;30.10;99.90;;;;;;5035572;28;20040;-64
2023/01/08 04:18:17;;;;;;;20.98;10.68;;;30.30;99.90;;;;;;5035541;28;20025;-64
2023/01/08 04:20:46;;;;;;;20.35;10.30;;;30.30;99.90;;;;;;5035305;28;20022;-63
2023/01/08 04:23:13;;;;;;;15.23;10.77;;;30.30;99.90;;;;;;5035164;28;20479;-63
2023/01/08 04:25:40;;;;;;;14.65;12.07;;;30.30;99.90;;;;;;5035501;28;20364;-63
2023/01/08 04:28:06;;;;;;;13.80;10.30;;;30.30;99.90;;;;;;5034926;28;20547;-64
2023/01/08 04:30:33;;;;;;;18.02;10.70;;;30.30;99.90;;;;;;5035479;28;20037;-64
2023/01/08 04:32:59;;;;;;;13.15;8.77;;;30.30;99.90;;;;;;5035570;28;20456;-63
2023/01/08 04:35:26;;;;;;;12.13;8.50;;;30.50;99.90;;;;;;5035483;28;20383;-63
2023/01/08 04:37:52;;;;;;;10.00;7.40;;;30.50;99.90;;;;;;5035570;28;20030;-63
2023/01/08 04:40:19;;;;;;;13.20;7.20;;;30.60;99.90;;;;;;5035743;28;20028;-63
2023/01/08 04:42:45;;;;;;;8.73;6.57;;;30.70;99.90;;;;;;5035491;28;20026;-62
2023/01/08 04:45:12;;;;;;;10.45;7.35;;;30.70;99.90;;;;;;5035622;28;20407;-63
2023/01/08 04:47:38;;;;;;;9.98;6.32;;;30.80;99.90;;;;;;5035779;28;20033;-63
2023/01/08 04:50:05;;;;;;;9.75;6.40;;;30.90;99.90;;;;;;5035364;28;20036;-64
2023/01/08 04:52:32;;;;;;;10.23;6.80;;;30.80;99.90;;;;;;5035237;28;20475;-63
2023/01/08 04:54:58;;;;;;;8.38;5.97;;;30.70;99.90;;;;;;5035530;28;20034;-63
2023/01/08 04:57:25;;;;;;;7.22;5.95;;;30.80;99.90;;;;;;5035339;28;20025;-63
2023/01/08 04:59:51;;;;;;;9.45;5.45;;;30.70;99.90;;;;;;5035067;28;20121;-63
2023/01/08 05:02:18;;;;;;;10.90;6.20;;;30.70;99.90;;;;;;5035133;28;20463;-63
2023/01/08 05:04:45;;;;;;;6.68;5.93;;;30.80;99.90;;;;;;5035203;28;20116;-64
2023/01/08 05:07:11;;;;;;;8.43;5.97;;;30.80;99.90;;;;;;5034942;28;20029;-64
2023/01/08 05:09:38;;;;;;;15.80;6.55;;;30.90;99.90;;;;;;5035290;28;20482;-64
2023/01/08 05:12:04;;;;;;;7.88;5.75;;;31.10;99.90;;;;;;5035098;28;20034;-63
2023/01/08 05:14:31;;;;;;;11.10;6.43;;;31.10;99.90;;;;;;5034789;28;20021;-63
2023/01/08 05:16:57;;;;;;;8.18;5.88;;;31.10;99.90;;;;;;5035110;28;20029;-62
2023/01/08 05:19:24;;;;;;;7.47;5.70;;;31.20;99.90;;;;;;5035040;28;20017;-63
2023/01/08 05:21:50;;;;;;;9.38;6.28;;;31.20;99.90;;;;;;5034692;28;20035;-63
2023/01/08 05:24:17;;;;;;;9.20;5.75;;;31.30;99.90;;;;;;5030214;28;20489;-62
2023/01/08 05:26:43;;;;;;;7.40;5.15;;;31.30;99.90;;;;;;5034399;28;20176;-61
2023/01/08 05:29:10;;;;;;;7.45;6.05;;;31.40;99.90;;;;;;5029421;28;20017;-63
2023/01/08 05:31:36;;;;;;;8.75;5.75;;;31.40;99.90;;;;;;5026782;28;20105;-63
2023/01/08 05:34:03;;;;;;;9.38;6.18;;;31.50;99.90;;;;;;5034589;28;20538;-62
2023/01/08 05:36:30;;;;;;;13.57;5.80;;;31.50;99.90;;;;;;5034577;28;20109;-63
2023/01/08 05:38:56;;;;;;;8.27;5.60;;;31.60;99.90;;;;;;5034779;28;20029;-63
2023/01/08 05:41:23;;;;;;;6.43;5.50;;;31.60;99.90;;;;;;5034450;28;20120;-64
2023/01/08 05:43:49;;;;;;;8.68;5.10;;;31.70;99.90;;;;;;5034396;28;20021;-62
2023/01/08 05:46:16;;;;;;;8.75;5.88;;;31.70;99.90;;;;;;5033917;28;20083;-63
2023/01/08 05:48:42;;;;;;;10.40;5.47;;;31.80;99.90;;;;;;5033262;28;20044;-63
2023/01/08 05:51:09;;;;;;;11.98;6.05;;;31.90;99.90;;;;;;5034770;28;20444;-62
2023/01/08 05:53:35;;;;;;;8.60;5.45;;;32.00;99.90;;;;;;5034641;28;20100;-64
2023/01/08 05:56:05;;;;;;;8.88;5.93;;;32.00;99.90;;;;;;5032484;28;20372;-64
2023/01/08 05:58:31;;;;;;;10.90;5.85;;;32.00;99.90;;;;;;5024647;28;20038;-61
2023/01/08 06:01:03;;;;;;;9.35;5.38;;;32.00;99.90;;;;;;5014488;28;20187;-63
2023/01/08 06:03:30;;;;;;;17.52;6.45;;;32.00;99.90;;;;;;5014073;28;20018;-63
2023/01/08 06:06:02;;;;;;;11.48;7.43;;;32.00;99.90;;;;;;5014108;28;20030;-63
2023/01/08 06:08:29;;;;;;;12.40;8.57;;;32.00;99.90;;;;;;5014468;28;20486;-64
2023/01/08 06:11:06;;;;;;;9.68;6.70;;;32.00;99.90;;;;;;5025464;28;20041;-64
2023/01/08 06:13:34;;;;;;;10.82;6.85;;;32.00;99.90;;;;;;5032859;28;20033;-63
2023/01/08 06:16:01;;;;;;;9.13;7.25;;;32.00;99.90;;;;;;5034109;28;20113;-63
2023/01/08 06:18:29;;;;;;;11.35;7.60;;;32.00;99.90;;;;;;5034078;28;20497;-63
2023/01/08 06:20:56;;;;;;;8.20;7.22;;;32.10;99.90;;;;;;5033785;28;20084;-62
2023/01/08 06:23:22;;;;;;;10.40;7.00;;;32.20;99.90;;;;;;5033832;28;20164;-63
2023/01/08 06:25:53;;;;;;;8.88;7.22;;;32.20;99.90;;;;;;5033793;28;20079;-62
2023/01/08 06:28:20;;;;;;;13.48;8.15;;;32.20;99.90;;;;;;5033858;28;20736;-63
2023/01/08 06:30:47;;;;;;;12.35;6.70;;;32.30;99.90;;;;;;5034050;28;20438;-63
2023/01/08 06:33:14;;;;;;;8.80;6.53;;;32.20;99.90;;;;;;5033644;28;20049;-63
2023/01/08 06:35:40;;;;;;;9.18;6.25;;;32.20;99.90;;;;;;5033540;28;20077;-63
2023/01/08 06:38:07;;;;;;;7.47;6.47;;;32.20;99.90;;;;;;5033719;28;20021;-63
2023/01/08 06:40:33;;;;;;;11.95;7.35;;;32.20;99.90;;;;;;5033498;28;20589;-63
2023/01/08 06:43:04;;;;;;;8.80;5.88;;;32.30;99.90;;;;;;5033440;28;20028;-63
2023/01/08 06:45:32;;;;;;;8.38;5.75;;;32.30;99.90;;;;;;5033519;28;20029;-63
2023/01/08 06:48:02;;;;;;;9.23;5.82;;;32.40;99.90;;;;;;5033400;28;20108;-62
2023/01/08 06:50:29;;;;;;;9.75;6.20;;;32.50;99.90;;;;;;5033367;28;20545;-63
2023/01/08 06:52:56;;;;;;;7.38;5.65;;;32.50;99.90;;;;;;5033429;28;20044;-62
2023/01/08 06:55:24;;;;;;;9.95;5.72;;;32.50;99.90;;;;;;5033206;28;20025;-61
2023/01/08 06:57:59;;;;;;;8.57;5.35;;;32.60;99.90;;;;;;5033393;28;20472;-63
2023/01/08 07:00:26;;;;;;;8.13;5.85;;;32.60;99.90;;;;;;5033215;28;20117;-63
2023/01/08 07:02:53;;;;;;;8.10;5.35;;;32.60;99.90;;;;;;5033014;28;20077;-63
2023/01/08 07:05:20;;;;;;;8.05;5.43;;;32.60;99.90;;;;;;5033236;28;20029;-63
2023/01/08 07:07:47;;;;;;;7.93;5.00;;;32.60;99.90;;;;;;5033147;28;20025;-62
2023/01/08 07:10:13;;;;;;;7.85;5.78;;;32.70;99.90;;;;;;5033119;28;20030;-64
2023/01/08 07:12:40;;;;;;;9.50;6.95;;;32.70;99.90;;;;;;5033126;28;20021;-64
2023/01/08 07:15:07;;;;;;;6.60;6.00;;;32.70;99.90;;;;;;5033105;28;20033;-64
2023/01/08 07:17:34;;;;;;;14.30;7.05;;;32.70;99.90;;;;;;5036229;28;20017;-63
2023/01/08 07:20:00;;;;;;;10.25;6.28;;;32.80;99.90;;;;;;5037240;28;20021;-64
2023/01/08 07:22:27;;;;;;;7.50;5.55;;;32.80;99.90;;;;;;5037149;28;21811;-64
2023/01/08 07:24:54;;;;;;;9.15;6.90;;;33.00;99.90;;;;;;5034469;28;20482;-64
2023/01/08 07:27:21;;;;;;;15.15;9.68;;;33.00;99.90;;;;;;5036105;28;20033;-63
2023/01/08 07:29:47;;;;;;;9.63;6.90;;;33.00;99.90;;;;;;5036046;28;20017;-62
2023/01/08 07:32:14;;;;;;;21.75;12.07;;;33.00;99.90;;;;;;5035879;28;20467;-62
2023/01/08 07:34:41;;;;;;;9.77;7.40;;;33.00;99.90;;;;;;5035535;28;20544;-64
2023/01/08 07:37:07;;;;;;;9.93;7.05;;;33.00;99.90;;;;;;5035511;28;20030;-63
2023/01/08 07:39:34;;;;;;;14.82;8.43;;;32.90;99.90;;;;;;5035701;28;20100;-63
2023/01/08 07:42:00;;;;;;;10.45;6.50;;;33.00;99.90;;;;;;5035088;28;20546;-62
2023/01/08 07:44:27;;;;;;;8.90;5.93;;;33.00;99.90;;;;;;5035080;28;20033;-63
2023/01/08 07:46:54;;;;;;;13.25;6.30;;;33.00;99.90;;;;;;5035121;28;20029;-63
2023/01/08 07:49:20;;;;;;;12.52;7.07;;;33.00;99.90;;;;;;5033494;28;20029;-63
2023/01/08 07:51:49;;;;;;;11.00;7.03;;;33.00;99.90;;;;;;5030415;28;20048;-63
2023/01/08 07:54:15;;;;;;;11.90;7.15;;;33.00;99.90;;;;;;5016834;28;20018;-62
2023/01/08 07:56:42;;;;;;;7.82;5.78;;;33.00;99.90;;;;;;5016738;28;20029;-64
2023/01/08 07:59:08;;;;;;;10.75;6.13;;;33.10;99.90;;;;;;5016765;28;20073;-64
2023/01/08 08:01:35;;;;;;;7.97;6.53;;;33.10;99.90;;;;;;5016877;28;20084;-64
2023/01/08 08:04:01;;;;;;;7.43;6.32;;;33.10;99.90;;;;;;5016698;28;20030;-64
2023/01/08 08:06:28;;;;;;;10.38;5.35;;;33.10;99.90;;;;;;5023247;28;20033;-64
2023/01/08 08:08:58;;;;;;;7.13;5.80;;;33.10;99.90;;;;;;5036489;28;20101;-64
2023/01/08 08:11:25;;;;;;;9.23;5.90;;;33.10;99.90;;;;;;5036454;28;20440;-64
2023/01/08 08:13:51;;;;;;;8.93;6.10;;;33.00;99.90;;;;;;5036332;28;20017;-64
2023/01/08 08:16:18;;;;;;;8.75;6.28;;;33.00;99.90;;;;;;5036241;28;20489;-63
2023/01/08 08:18:44;;;;;;;11.02;5.95;;;33.10;99.90;;;;;;5035956;28;20109;-63
2023/01/08 08:21:11;;;;;;;9.77;6.05;;;33.10;99.90;;;;;;5036289;28;20017;-64
2023/01/08 08:23:37;;;;;;;7.75;6.47;;;33.10;99.90;;;;;;5036075;28;20022;-64
2023/01/08 08:26:04;;;;;;;9.02;7.00;;;33.10;99.90;;;;;;5035717;28;20475;-64
2023/01/08 08:28:31;;;;;;;10.48;7.00;;;33.10;99.90;;;;;;5035343;28;20079;-63
2023/01/08 08:30:57;;;;;;;9.93;7.20;;;33.10;99.90;;;;;;5033998;28;20022;-64
2023/01/08 08:33:24;;;;;;;11.60;7.60;;;33.10;99.90;;;;;;5025314;28;20100;-64
2023/01/08 08:35:50;;;;;;;10.52;6.78;;;33.20;99.90;;;;;;5026643;28;20446;-64
2023/01/08 08:38:17;;;;;;;11.88;7.38;;;33.10;99.90;;;;;;5015835;28;20026;-63
2023/01/08 08:40:44;;;;;;;13.45;8.15;;;33.10;99.90;;;;;;5015717;28;20414;-62
2023/01/08 08:43:10;;;;;;;13.45;7.68;;;33.10;99.90;;;;;;5015761;28;20100;-64
2023/01/08 08:45:37;;;;;;;10.80;7.60;;;33.10;99.90;;;;;;5015683;28;20034;-64
2023/01/08 08:48:06;;;;;;;12.80;7.28;;;33.10;99.90;;;;;;5015437;28;20065;-64
2023/01/08 08:50:34;;;;;;;13.00;7.50;;;33.10;99.90;;;;;;5015734;28;20498;-62
2023/01/08 08:53:02;;;;;;;10.77;7.60;;;33.10;99.90;;;;;;5015558;28;20037;-63
2023/01/08 08:55:28;;;;;;;10.95;7.07;;;33.10;99.90;;;;;;5015950;28;20056;-64
2023/01/08 08:58:04;;;;;;;17.50;9.73;;;33.10;99.90;;;;;;5017215;28;20022;-63
2023/01/08 09:00:31;;;;;;;15.55;10.20;;;33.10;99.90;;;;;;5017654;28;20049;-63
2023/01/08 09:02:57;;;;;;;12.40;10.05;;;33.10;99.90;;;;;;5017786;28;20538;-64
2023/01/08 09:05:24;;;;;;;14.35;9.15;;;33.10;99.90;;;;;;5035769;28;20028;-64
2023/01/08 09:07:50;;;;;;;22.17;9.20;;;33.10;99.90;;;;;;5037114;28;20033;-67
2023/01/08 09:10:17;;;;;;;18.00;8.02;;;33.00;99.90;;;;;;5037378;28;20025;-63
2023/01/08 09:12:43;;;;;;;9.88;7.30;;;33.00;99.90;;;;;;5036442;28;20393;-63
2023/01/08 09:15:10;;;;;;;13.60;8.07;;;32.90;99.90;;;;;;5035482;28;20041;-64
2023/01/08 09:17:37;;;;;;;15.02;9.70;;;32.90;99.90;;;;;;5036018;28;20017;-64
2023/01/08 09:20:05;;;;;;;16.42;11.32;;;32.90;99.90;;;;;;5039726;28;20123;-64
2023/01/08 09:22:32;;;;;;;30.70;17.30;;;32.90;99.90;;;;;;5037103;28;20021;-64
2023/01/08 09:24:58;;;;;;;20.13;11.73;;;32.90;99.90;;;;;;5066706;23;20452;-62
2023/01/08 09:27:25;;;;;;;14.93;10.50;;;32.80;99.90;;;;;;5057484;28;20096;-61
2023/01/08 09:29:51;;;;;;;21.25;15.40;;;32.90;99.90;;;;;;5057399;28;20033;-60
2023/01/08 09:32:18;;;;;;;35.63;21.38;;;32.80;99.90;;;;;;5056497;28;20032;-61
2023/01/08 09:34:44;;;;;;;33.88;22.58;;;32.80;99.90;;;;;;5055292;28;20398;-61
2023/01/08 09:37:12;;;;;;;31.70;19.75;;;32.80;99.90;;;;;;5055275;28;20029;-62
2023/01/08 09:39:38;;;;;;;38.05;22.15;;;32.70;99.90;;;;;;5053959;28;20355;-61
2023/01/08 09:42:06;;;;;;;18.77;12.65;;;32.60;99.90;;;;;;5055173;28;20025;-62
2023/01/08 09:44:38;;;;;;;21.30;10.70;;;32.40;99.90;;;;;;5056973;28;20025;-63
2023/01/08 09:47:05;;;;;;;;;;;31.80;99.90;;;;;;5056797;28;20032;-65
2023/01/08 09:49:40;;;;;;;24.33;8.57;;;31.30;99.90;;;;;;5056692;28;19904;-66
2023/01/08 09:52:11;;;;;;;20.27;9.18;;;30.80;99.90;;;;;;5056876;28;20025;-66
2023/01/08 09:54:39;;;;;;;33.85;14.23;;;30.60;99.90;;;;;;5055960;28;20033;-68
2023/01/08 09:57:09;;;;;;;40.03;17.63;;;30.50;99.90;;;;;;5056479;28;20536;-69
2023/01/08 09:59:35;;;;;;;56.95;25.08;;;30.40;99.90;;;;;;5056032;28;20025;-68
2023/01/08 10:02:03;;;;;;;55.30;26.30;;;30.40;99.90;;;;;;5055150;28;20446;-68
2023/01/08 10:04:33;;;;;;;57.53;28.08;;;30.50;99.90;;;;;;5047308;28;20033;-69
2023/01/08 10:07:05;;;;;;;50.58;27.05;;;30.50;99.90;;;;;;5036707;28;20057;-68
2023/01/08 10:09:32;;;;;;;50.55;24.45;;;30.60;99.90;;;;;;5036930;28;20029;-67
2023/01/08 10:12:03;;;;;;;45.45;23.02;;;30.60;99.90;;;;;;5036730;28;20029;-68
2023/01/08 10:14:37;;;;;;;46.75;28.15;;;30.60;99.90;;;;;;5034525;28;20063;-67
2023/01/08 10:17:16;;;;;;;53.60;30.20;;;30.50;99.90;;;;;;5033526;28;20096;-67
2023/01/08 10:19:44;;;;;;;53.33;28.95;;;30.50;99.90;;;;;;5035700;28;20017;-67
2023/01/08 10:22:18;;;;;;;42.92;22.35;;;30.50;99.90;;;;;;5056337;23;20065;-68
2023/01/08 10:24:45;;;;;;;30.52;18.52;;;30.60;99.90;;;;;;5036487;28;20025;-68
2023/01/08 10:27:15;;;;;;;43.17;24.15;;;30.50;99.90;;;;;;5036483;28;20289;-67
2023/01/08 10:29:43;;;;;;;53.60;32.63;;;30.40;99.90;;;;;;5036523;28;20025;-68
2023/01/08 10:32:14;;;;;;;53.70;29.90;;;30.50;99.90;;;;;;5033804;28;20029;-68
2023/01/08 10:34:56;;;;;;;56.30;29.85;;;30.50;99.90;;;;;;5026000;28;20083;-68
2023/01/08 10:37:27;;;;;;;59.65;34.90;;;30.50;99.90;;;;;;5016636;28;20415;-67
2023/01/08 10:40:01;;;;;;;48.25;28.40;;;30.40;99.90;;;;;;5025080;28;20399;-67
2023/01/08 10:42:33;;;;;;;37.03;23.60;;;30.40;99.90;;;;;;5035860;28;20061;-67
2023/01/08 10:45:03;;;;;;;35.28;22.38;;;30.50;99.90;;;;;;5034857;28;20479;-68
2023/01/08 10:47:34;;;;;;;39.60;24.48;;;30.50;99.90;;;;;;5022777;28;20030;-67
2023/01/08 10:50:04;;;;;;;57.13;33.85;;;30.50;99.90;;;;;;5023602;28;20079;-67
2023/01/08 10:52:35;;;;;;;70.55;39.20;;;30.40;99.90;;;;;;5035903;28;20410;-67
2023/01/08 10:55:20;;;;;;;60.17;36.67;;;30.40;99.90;;;;;;5030553;28;20026;-67
2023/01/08 10:58:01;;;;;;;48.72;31.85;;;30.40;99.90;;;;;;5016264;28;20026;-67
2023/01/08 11:00:31;;;;;;;44.92;29.90;;;30.30;99.90;;;;;;5020021;28;20466;-69
2023/01/08 11:03:01;;;;;;;48.13;31.20;;;30.30;99.90;;;;;;5031477;28;20501;-67
2023/01/08 11:05:32;;;;;;;55.83;31.40;;;30.40;99.90;;;;;;5032259;28;20025;-67
2023/01/08 11:08:01;;;;;;;46.10;30.63;;;30.40;99.90;;;;;;5030572;28;20055;-67
2023/01/08 11:10:28;;;;;;;54.47;31.15;;;30.40;99.90;;;;;;5032683;28;20075;-68
2023/01/08 11:13:00;;;;;;;45.10;28.70;;;30.40;99.90;;;;;;5029792;28;20483;-67
2023/01/08 11:15:29;;;;;;;40.10;27.30;;;30.40;99.90;;;;;;5032286;28;20458;-69
2023/01/08 11:18:17;;;;;;;42.58;31.42;;;30.40;99.90;;;;;;5029826;28;20504;-67
2023/01/08 11:20:44;;;;;;;40.95;25.35;;;30.30;99.90;;;;;;5030743;28;20025;-68
2023/01/08 11:23:13;;;;;;;15.50;9.45;;;30.10;99.90;;;;;;5031783;28;20084;-69
2023/01/08 11:25:42;;;;;;;18.17;9.38;;;29.50;99.90;;;;;;5032243;28;20021;-69
2023/01/08 11:28:14;;;;;;;15.60;6.75;;;29.10;99.90;;;;;;5029745;28;20034;-69
2023/01/08 11:30:49;;;;;;;16.88;4.10;;;28.60;99.90;;;;;;5025859;28;20029;-68
2023/01/08 11:33:22;;;;;;;13.07;3.38;;;27.80;99.90;;;;;;5030917;28;20017;-67
2023/01/08 11:36:09;;;;;;;11.88;3.45;;;26.90;99.90;;;;;;5030042;28;20363;-67
2023/01/08 11:38:36;;;;;;;30.33;6.68;;;26.50;99.90;;;;;;5033811;28;20034;-67
2023/01/08 11:41:11;;;;;;;35.72;9.80;;;26.20;99.90;;;;;;5032956;28;20030;-69
2023/01/08 11:44:05;;;;;;;23.63;7.32;;;26.20;99.90;;;;;;5032566;28;20022;-69
2023/01/08 11:46:33;;;;;;;72.25;37.80;;;26.10;99.90;;;;;;5031325;28;20501;-69
2023/01/08 11:49:22;;;;;;;35.33;19.90;;;26.40;99.90;;;;;;5029831;28;20040;-70
2023/01/08 11:52:03;;;;;;;26.23;14.13;;;26.50;99.90;;;;;;5031370;28;20017;-68
2023/01/08 11:54:39;;;;;;;30.40;17.02;;;26.70;99.90;;;;;;5031337;28;20036;-67
2023/01/08 11:57:25;;;;;;;22.58;12.45;;;26.80;99.90;;;;;;5030503;28;20103;-69
2023/01/08 11:59:55;;;;;;;14.20;6.18;;;26.90;99.90;;;;;;4951001;29;20031;-68
2023/01/08 12:02:50;;;;;;;30.98;17.80;;;27.10;99.90;;;;;;4954284;28;20042;-69
2023/01/08 12:05:18;;;;;;;15.40;5.82;;;27.30;99.90;;;;;;4956637;29;20043;-67
2023/01/08 12:08:03;;;;;;;15.45;5.05;;;27.40;99.90;;;;;;4956112;29;20031;-68
2023/01/08 12:10:42;;;;;;;8.35;3.75;;;27.40;99.90;;;;;;4956827;28;20122;-69
2023/01/08 12:13:38;;;;;;;9.60;3.85;;;27.40;99.90;;;;;;4956069;29;20151;-69
2023/01/08 12:16:18;;;;;;;59.38;38.92;;;27.40;99.90;;;;;;4917005;29;20055;-68
2023/01/08 12:19:05;;;;;;;33.17;19.90;;;27.50;99.90;;;;;;4917523;29;20487;-68
2023/01/08 12:22:00;;;;;;;18.27;7.20;;;27.50;99.90;;;;;;4929505;29;20059;-67
2023/01/08 12:24:47;;;;;;;16.05;8.15;;;27.50;99.90;;;;;;4917512;29;20044;-69
2023/01/08 12:27:43;;;;;;;14.65;7.00;;;27.50;99.90;;;;;;4917616;29;20044;-68
2023/01/08 12:30:19;;;;;;;16.15;7.15;;;27.40;99.90;;;;;;4879575;29;20545;-68
2023/01/08 12:32:55;;;;;;;12.30;5.28;;;27.40;99.90;;;;;;4874737;29;20139;-67
2023/01/08 12:35:28;;;;;;;25.75;11.45;;;27.40;99.90;;;;;;4861109;29;20049;-68
2023/01/08 12:37:58;;;;;;;18.10;8.50;;;27.40;99.90;;;;;;4910948;29;20047;-68
2023/01/08 12:40:38;;;;;;;10.18;4.88;;;27.40;99.90;;;;;;4935281;29;20036;-69
2023/01/08 12:43:13;;;;;;;8.65;4.43;;;27.50;99.90;;;;;;4918447;29;20055;-72
2023/01/08 12:45:46;;;;;;;17.98;12.13;;;27.40;99.90;;;;;;4912228;29;20588;-71
2023/01/08 12:48:18;;;;;;;17.52;11.95;;;27.40;99.90;;;;;;4898352;29;20048;-70